sensor_id;sensor_type;location;lat;lon;timestamp;pressure;altitude;pressure_sealevel;temperature;humidity
44920;BME280;30655;53.094;6.072;2023-02-11T00:01:24;103199.13;;;6.11;96.56
44920;BME280;30655;53.094;6.072;2023-02-11T00:03:53;103294.69;;;6.66;97.15
44920;BME280;30655;53.094;6.072;2023-02-11T00:06:23;103264.81;;;6.46;97.25
44920;BME280;30655;53.094;6.072;2023-02-11T00:08:50;103277.59;;;6.59;96.93
44920;BME280;30655;53.094;6.072;2023-02-11T00:11:18;103271.94;;;6.54;97.24
44920;BME280;30655;53.094;6.072;2023-02-11T00:13:46;103263.25;;;6.52;97.50
44920;BME280;30655;53.094;6.072;2023-02-11T00:16:18;103255.06;;;6.45;98.10
44920;BME280;30655;53.094;6.072;2023-02-11T00:18:47;103255.53;;;6.48;97.69
44920;BME280;30655;53.094;6.072;2023-02-11T00:21:25;103247.25;;;6.35;98.22
44920;BME280;30655;53.094;6.072;2023-02-11T00:23:52;103212.56;;;6.11;98.07
44920;BME280;30655;53.094;6.072;2023-02-11T00:26:22;103251.63;;;6.36;98.33
44920;BME280;30655;53.094;6.072;2023-02-11T00:28:51;103252.63;;;6.35;98.31
44920;BME280;30655;53.094;6.072;2023-02-11T00:31:20;103245.13;;;6.31;98.81
44920;BME280;30655;53.094;6.072;2023-02-11T00:33:48;103249.34;;;6.25;98.88
44920;BME280;30655;53.094;6.072;2023-02-11T00:36:17;103270.13;;;6.31;98.91
44920;BME280;30655;53.094;6.072;2023-02-11T00:38:46;103265.84;;;6.22;98.88
44920;BME280;30655;53.094;6.072;2023-02-11T00:41:13;103278.53;;;6.28;99.39
44920;BME280;30655;53.094;6.072;2023-02-11T00:43:40;103260.66;;;6.21;98.60
44920;BME280;30655;53.094;6.072;2023-02-11T00:46:07;103262.97;;;6.24;99.42
44920;BME280;30655;53.094;6.072;2023-02-11T00:48:36;103238.66;;;6.02;99.48
44920;BME280;30655;53.094;6.072;2023-02-11T00:51:03;103254.91;;;6.01;99.30
44920;BME280;30655;53.094;6.072;2023-02-11T00:53:30;103281.13;;;6.22;99.75
44920;BME280;30655;53.094;6.072;2023-02-11T00:55:58;103188.44;;;5.57;99.98
44920;BME280;30655;53.094;6.072;2023-02-11T00:58:24;103268.88;;;6.19;99.72
44920;BME280;30655;53.094;6.072;2023-02-11T01:00:52;103270.25;;;6.15;100.00
44920;BME280;30655;53.094;6.072;2023-02-11T01:03:19;103267.19;;;6.18;99.61
44920;BME280;30655;53.094;6.072;2023-02-11T01:05:47;103129.44;;;5.27;99.54
44920;BME280;30655;53.094;6.072;2023-02-11T01:08:15;103121.28;;;5.20;100.00
44920;BME280;30655;53.094;6.072;2023-02-11T01:10:41;103275.09;;;5.97;100.00
44920;BME280;30655;53.094;6.072;2023-02-11T01:13:08;103281.06;;;6.07;100.00
44920;BME280;30655;53.094;6.072;2023-02-11T01:15:35;103282.41;;;6.03;100.00
44920;BME280;30655;53.094;6.072;2023-02-11T01:18:03;103261.00;;;5.95;99.73
44920;BME280;30655;53.094;6.072;2023-02-11T01:20:32;103272.50;;;6.03;100.00
44920;BME280;30655;53.094;6.072;2023-02-11T01:23:00;103180.00;;;5.38;99.82
44920;BME280;30655;53.094;6.072;2023-02-11T01:25:27;103276.22;;;6.02;100.00
44920;BME280;30655;53.094;6.072;2023-02-11T01:27:57;103275.19;;;6.03;100.00
44920;BME280;30655;53.094;6.072;2023-02-11T01:30:23;103278.38;;;6.07;100.00
44920;BME280;30655;53.094;6.072;2023-02-11T01:32:50;103260.31;;;5.93;100.00
44920;BME280;30655;53.094;6.072;2023-02-11T01:35:17;103267.63;;;6.07;100.00
44920;BME280;30655;53.094;6.072;2023-02-11T01:37:44;103274.34;;;6.03;100.00
44920;BME280;30655;53.094;6.072;2023-02-11T01:40:15;103264.66;;;6.02;100.00
44920;BME280;30655;53.094;6.072;2023-02-11T01:42:42;103258.00;;;5.90;100.00
44920;BME280;30655;53.094;6.072;2023-02-11T01:48:24;103271.66;;;6.03;100.00
44920;BME280;30655;53.094;6.072;2023-02-11T01:50:58;103284.28;;;6.02;100.00
44920;BME280;30655;53.094;6.072;2023-02-11T01:53:28;103276.31;;;6.09;100.00
44920;BME280;30655;53.094;6.072;2023-02-11T01:55:57;103277.47;;;6.15;100.00
44920;BME280;30655;53.094;6.072;2023-02-11T01:58:25;103270.91;;;6.17;100.00
44920;BME280;30655;53.094;6.072;2023-02-11T02:00:52;103259.81;;;6.20;100.00
44920;BME280;30655;53.094;6.072;2023-02-11T02:03:21;103244.38;;;6.22;100.00
44920;BME280;30655;53.094;6.072;2023-02-11T02:05:53;103215.16;;;6.19;100.00
44920;BME280;30655;53.094;6.072;2023-02-11T02:08:28;103233.72;;;6.29;100.00
44920;BME280;30655;53.094;6.072;2023-02-11T02:10:58;103236.78;;;6.26;100.00
44920;BME280;30655;53.094;6.072;2023-02-11T02:13:26;103222.88;;;6.22;100.00
44920;BME280;30655;53.094;6.072;2023-02-11T02:15:54;103242.25;;;6.32;100.00
44920;BME280;30655;53.094;6.072;2023-02-11T02:18:31;103242.91;;;6.34;100.00
44920;BME280;30655;53.094;6.072;2023-02-11T02:24:40;103245.59;;;6.34;100.00
44920;BME280;30655;53.094;6.072;2023-02-11T02:27:25;103247.25;;;6.35;100.00
44920;BME280;30655;53.094;6.072;2023-02-11T02:32:59;103232.44;;;6.39;100.00
44920;BME280;30655;53.094;6.072;2023-02-11T02:35:42;103187.72;;;6.09;100.00
44920;BME280;30655;53.094;6.072;2023-02-11T02:38:17;103234.78;;;6.42;100.00
44920;BME280;30655;53.094;6.072;2023-02-11T02:40:48;103178.66;;;6.10;100.00
44920;BME280;30655;53.094;6.072;2023-02-11T02:43:16;103237.28;;;6.44;100.00
44920;BME280;30655;53.094;6.072;2023-02-11T02:45:43;103231.34;;;6.48;100.00
44920;BME280;30655;53.094;6.072;2023-02-11T02:48:24;103186.28;;;6.21;100.00
44920;BME280;30655;53.094;6.072;2023-02-11T02:50:59;103231.84;;;6.52;100.00
44920;BME280;30655;53.094;6.072;2023-02-11T02:53:41;103199.75;;;6.36;100.00
44920;BME280;30655;53.094;6.072;2023-02-11T02:56:15;103158.94;;;6.18;100.00
44920;BME280;30655;53.094;6.072;2023-02-11T02:58:55;103219.50;;;6.58;100.00
44920;BME280;30655;53.094;6.072;2023-02-11T03:01:33;103217.47;;;6.60;100.00
44920;BME280;30655;53.094;6.072;2023-02-11T03:04:11;103213.13;;;6.59;100.00
44920;BME280;30655;53.094;6.072;2023-02-11T03:06:48;103211.72;;;6.63;100.00
44920;BME280;30655;53.094;6.072;2023-02-11T03:09:20;103195.31;;;6.58;100.00
44920;BME280;30655;53.094;6.072;2023-02-11T03:11:51;103200.91;;;6.71;100.00
44920;BME280;30655;53.094;6.072;2023-02-11T03:14:19;103200.25;;;6.69;100.00
44920;BME280;30655;53.094;6.072;2023-02-11T03:16:48;103098.13;;;6.10;100.00
44920;BME280;30655;53.094;6.072;2023-02-11T03:19:21;103196.81;;;6.75;100.00
44920;BME280;30655;53.094;6.072;2023-02-11T03:21:50;103194.41;;;6.80;100.00
44920;BME280;30655;53.094;6.072;2023-02-11T03:24:20;103205.84;;;6.82;100.00
44920;BME280;30655;53.094;6.072;2023-02-11T03:26:52;103192.41;;;6.82;100.00
44920;BME280;30655;53.094;6.072;2023-02-11T03:29:25;103200.72;;;6.87;100.00
44920;BME280;30655;53.094;6.072;2023-02-11T03:32:01;103207.75;;;6.88;100.00
44920;BME280;30655;53.094;6.072;2023-02-11T03:34:37;103195.63;;;6.92;100.00
44920;BME280;30655;53.094;6.072;2023-02-11T03:37:09;103197.94;;;6.95;100.00
44920;BME280;30655;53.094;6.072;2023-02-11T03:39:41;103126.28;;;6.58;100.00
44920;BME280;30655;53.094;6.072;2023-02-11T03:42:10;103190.31;;;6.99;100.00
44920;BME280;30655;53.094;6.072;2023-02-11T03:44:42;103167.06;;;6.91;100.00
44920;BME280;30655;53.094;6.072;2023-02-11T03:47:11;103187.56;;;7.07;100.00
44920;BME280;30655;53.094;6.072;2023-02-11T03:49:44;103181.34;;;7.06;100.00
44920;BME280;30655;53.094;6.072;2023-02-11T03:52:13;103178.00;;;7.04;100.00
44920;BME280;30655;53.094;6.072;2023-02-11T03:54:42;103183.28;;;7.12;100.00
44920;BME280;30655;53.094;6.072;2023-02-11T03:57:13;103195.34;;;7.16;100.00
44920;BME280;30655;53.094;6.072;2023-02-11T03:59:58;103197.34;;;7.14;100.00
44920;BME280;30655;53.094;6.072;2023-02-11T04:02:29;103176.59;;;7.08;100.00
44920;BME280;30655;53.094;6.072;2023-02-11T04:04:59;103044.31;;;6.33;100.00
44920;BME280;30655;53.094;6.072;2023-02-11T04:07:26;103162.53;;;7.06;100.00
44920;BME280;30655;53.094;6.072;2023-02-11T04:09:54;103192.97;;;7.28;100.00
44920;BME280;30655;53.094;6.072;2023-02-11T04:12:21;103203.56;;;7.29;100.00
44920;BME280;30655;53.094;6.072;2023-02-11T04:14:48;103198.00;;;7.31;100.00
44920;BME280;30655;53.094;6.072;2023-02-11T04:17:15;103197.72;;;7.26;100.00
44920;BME280;30655;53.094;6.072;2023-02-11T04:19:42;103197.03;;;7.39;100.00
44920;BME280;30655;53.094;6.072;2023-02-11T04:22:10;103198.72;;;7.40;100.00
44920;BME280;30655;53.094;6.072;2023-02-11T04:24:37;103141.84;;;7.07;100.00
44920;BME280;30655;53.094;6.072;2023-02-11T04:27:03;103184.34;;;7.32;100.00
44920;BME280;30655;53.094;6.072;2023-02-11T04:29:30;103190.38;;;7.34;100.00
44920;BME280;30655;53.094;6.072;2023-02-11T04:31:57;103186.50;;;7.37;100.00
44920;BME280;30655;53.094;6.072;2023-02-11T04:34:24;103168.19;;;7.32;100.00
44920;BME280;30655;53.094;6.072;2023-02-11T04:36:51;103211.28;;;7.54;100.00
44920;BME280;30655;53.094;6.072;2023-02-11T04:39:19;103211.28;;;7.54;100.00
44920;BME280;30655;53.094;6.072;2023-02-11T04:41:46;103140.03;;;7.14;100.00
44920;BME280;30655;53.094;6.072;2023-02-11T04:44:13;103188.47;;;7.50;100.00
44920;BME280;30655;53.094;6.072;2023-02-11T04:46:42;103182.69;;;7.53;100.00
44920;BME280;30655;53.094;6.072;2023-02-11T04:49:12;103187.31;;;7.59;100.00
44920;BME280;30655;53.094;6.072;2023-02-11T04:51:39;103145.50;;;7.20;100.00
44920;BME280;30655;53.094;6.072;2023-02-11T04:54:06;103173.09;;;7.44;100.00
44920;BME280;30655;53.094;6.072;2023-02-11T04:56:34;103204.72;;;7.56;100.00
44920;BME280;30655;53.094;6.072;2023-02-11T04:59:01;103185.41;;;7.53;100.00
44920;BME280;30655;53.094;6.072;2023-02-11T05:01:29;103212.72;;;7.71;100.00
44920;BME280;30655;53.094;6.072;2023-02-11T05:03:56;103167.97;;;7.49;100.00
44920;BME280;30655;53.094;6.072;2023-02-11T05:06:23;103196.94;;;7.68;100.00
44920;BME280;30655;53.094;6.072;2023-02-11T05:08:50;103207.78;;;7.74;100.00
44920;BME280;30655;53.094;6.072;2023-02-11T05:11:19;103208.22;;;7.78;100.00
44920;BME280;30655;53.094;6.072;2023-02-11T05:13:47;103200.38;;;7.76;100.00
44920;BME280;30655;53.094;6.072;2023-02-11T05:16:15;103205.75;;;7.76;100.00
44920;BME280;30655;53.094;6.072;2023-02-11T05:18:43;103168.31;;;7.60;100.00
44920;BME280;30655;53.094;6.072;2023-02-11T05:21:12;103198.75;;;7.82;100.00
44920;BME280;30655;53.094;6.072;2023-02-11T05:23:39;103196.63;;;7.77;100.00
44920;BME280;30655;53.094;6.072;2023-02-11T05:26:07;103135.38;;;7.37;100.00
44920;BME280;30655;53.094;6.072;2023-02-11T05:28:34;103155.78;;;7.53;100.00
44920;BME280;30655;53.094;6.072;2023-02-11T05:31:03;103215.38;;;7.86;100.00
44920;BME280;30655;53.094;6.072;2023-02-11T05:33:30;103204.53;;;7.79;100.00
44920;BME280;30655;53.094;6.072;2023-02-11T05:35:58;103207.91;;;7.88;100.00
44920;BME280;30655;53.094;6.072;2023-02-11T05:38:24;103181.44;;;7.70;100.00
44920;BME280;30655;53.094;6.072;2023-02-11T05:40:51;103174.03;;;7.72;100.00
44920;BME280;30655;53.094;6.072;2023-02-11T05:43:18;103190.03;;;7.80;100.00
44920;BME280;30655;53.094;6.072;2023-02-11T05:45:45;103201.69;;;7.87;100.00
44920;BME280;30655;53.094;6.072;2023-02-11T05:48:13;103156.31;;;7.63;100.00
44920;BME280;30655;53.094;6.072;2023-02-11T05:50:41;103163.81;;;7.67;100.00
44920;BME280;30655;53.094;6.072;2023-02-11T05:53:08;103090.88;;;7.20;100.00
44920;BME280;30655;53.094;6.072;2023-02-11T05:55:35;103203.38;;;7.88;100.00
44920;BME280;30655;53.094;6.072;2023-02-11T05:58:02;103191.63;;;7.74;100.00
44920;BME280;30655;53.094;6.072;2023-02-11T06:00:29;103203.38;;;7.88;100.00
44920;BME280;30655;53.094;6.072;2023-02-11T06:02:59;103198.81;;;7.89;100.00
44920;BME280;30655;53.094;6.072;2023-02-11T06:05:27;103209.59;;;7.89;100.00
44920;BME280;30655;53.094;6.072;2023-02-11T06:07:54;103209.97;;;7.86;100.00
44920;BME280;30655;53.094;6.072;2023-02-11T06:10:21;103201.34;;;7.90;100.00
44920;BME280;30655;53.094;6.072;2023-02-11T06:12:48;103185.94;;;7.84;100.00
44920;BME280;30655;53.094;6.072;2023-02-11T06:15:15;103200.66;;;7.88;100.00
44920;BME280;30655;53.094;6.072;2023-02-11T06:17:41;103201.25;;;7.84;100.00
44920;BME280;30655;53.094;6.072;2023-02-11T06:20:09;103186.69;;;7.78;100.00
44920;BME280;30655;53.094;6.072;2023-02-11T06:22:37;103202.09;;;7.84;100.00
44920;BME280;30655;53.094;6.072;2023-02-11T06:25:05;103198.97;;;7.81;100.00
44920;BME280;30655;53.094;6.072;2023-02-11T06:27:32;103143.22;;;7.39;100.00
44920;BME280;30655;53.094;6.072;2023-02-11T06:29:58;103209.06;;;7.78;100.00
44920;BME280;30655;53.094;6.072;2023-02-11T06:32:26;103204.91;;;7.76;100.00
44920;BME280;30655;53.094;6.072;2023-02-11T06:35:12;103208.19;;;7.71;100.00
44920;BME280;30655;53.094;6.072;2023-02-11T06:37:40;103214.78;;;7.69;100.00
44920;BME280;30655;53.094;6.072;2023-02-11T06:40:08;103213.03;;;7.61;100.00
44920;BME280;30655;53.094;6.072;2023-02-11T06:42:35;103120.06;;;7.02;100.00
44920;BME280;30655;53.094;6.072;2023-02-11T06:45:03;103209.69;;;7.59;100.00
44920;BME280;30655;53.094;6.072;2023-02-11T06:47:30;103217.13;;;7.57;100.00
44920;BME280;30655;53.094;6.072;2023-02-11T06:49:57;103224.56;;;7.55;100.00
44920;BME280;30655;53.094;6.072;2023-02-11T06:52:27;103128.69;;;6.97;100.00
44920;BME280;30655;53.094;6.072;2023-02-11T06:54:55;103223.72;;;7.55;100.00
44920;BME280;30655;53.094;6.072;2023-02-11T06:57:22;103218.34;;;7.55;100.00
44920;BME280;30655;53.094;6.072;2023-02-11T06:59:49;103224.13;;;7.52;100.00
44920;BME280;30655;53.094;6.072;2023-02-11T07:02:16;103199.72;;;7.39;100.00
44920;BME280;30655;53.094;6.072;2023-02-11T07:04:46;103207.69;;;7.47;100.00
44920;BME280;30655;53.094;6.072;2023-02-11T07:07:13;103132.88;;;6.85;100.00
44920;BME280;30655;53.094;6.072;2023-02-11T07:09:41;103220.38;;;7.53;100.00
44920;BME280;30655;53.094;6.072;2023-02-11T07:12:09;103215.84;;;7.53;100.00
44920;BME280;30655;53.094;6.072;2023-02-11T07:14:38;103221.03;;;7.55;100.00
44920;BME280;30655;53.094;6.072;2023-02-11T07:17:04;103209.75;;;7.45;100.00
44920;BME280;30655;53.094;6.072;2023-02-11T07:19:32;103230.78;;;7.56;100.00
44920;BME280;30655;53.094;6.072;2023-02-11T07:21:59;103231.63;;;7.56;100.00
44920;BME280;30655;53.094;6.072;2023-02-11T07:24:28;103227.06;;;7.57;100.00
44920;BME280;30655;53.094;6.072;2023-02-11T07:26:55;103231.41;;;7.58;100.00
44920;BME280;30655;53.094;6.072;2023-02-11T07:29:23;103214.09;;;7.46;100.00
44920;BME280;30655;53.094;6.072;2023-02-11T07:31:50;103239.31;;;7.59;100.00
44920;BME280;30655;53.094;6.072;2023-02-11T07:34:16;103233.09;;;7.59;100.00
44920;BME280;30655;53.094;6.072;2023-02-11T07:36:45;103246.53;;;7.59;100.00
44920;BME280;30655;53.094;6.072;2023-02-11T07:39:11;103236.16;;;7.56;100.00
44920;BME280;30655;53.094;6.072;2023-02-11T07:41:38;103235.78;;;7.59;100.00
44920;BME280;30655;53.094;6.072;2023-02-11T07:44:06;103222.97;;;7.61;100.00
44920;BME280;30655;53.094;6.072;2023-02-11T07:46:34;103175.72;;;7.22;100.00
44920;BME280;30655;53.094;6.072;2023-02-11T07:49:02;103077.63;;;6.68;100.00
44920;BME280;30655;53.094;6.072;2023-02-11T07:51:29;103086.09;;;6.65;100.00
44920;BME280;30655;53.094;6.072;2023-02-11T07:53:58;103233.25;;;7.57;100.00
44920;BME280;30655;53.094;6.072;2023-02-11T07:56:27;103157.63;;;6.95;100.00
44920;BME280;30655;53.094;6.072;2023-02-11T07:58:55;103237.84;;;7.57;100.00
44920;BME280;30655;53.094;6.072;2023-02-11T08:01:23;103242.16;;;7.58;100.00
44920;BME280;30655;53.094;6.072;2023-02-11T08:03:53;103213.56;;;7.35;100.00
44920;BME280;30655;53.094;6.072;2023-02-11T08:06:22;103251.28;;;7.57;100.00
44920;BME280;30655;53.094;6.072;2023-02-11T08:08:50;103244.03;;;7.57;100.00
44920;BME280;30655;53.094;6.072;2023-02-11T08:11:19;103239.22;;;7.53;100.00
44920;BME280;30655;53.094;6.072;2023-02-11T08:13:47;103223.19;;;7.45;100.00
44920;BME280;30655;53.094;6.072;2023-02-11T08:16:17;103228.19;;;7.48;100.00
44920;BME280;30655;53.094;6.072;2023-02-11T08:18:45;103246.28;;;7.54;100.00
44920;BME280;30655;53.094;6.072;2023-02-11T08:21:13;103261.00;;;7.58;100.00
44920;BME280;30655;53.094;6.072;2023-02-11T08:23:43;103226.63;;;7.39;100.00
44920;BME280;30655;53.094;6.072;2023-02-11T08:26:11;103270.41;;;7.62;100.00
44920;BME280;30655;53.094;6.072;2023-02-11T08:28:40;103276.97;;;7.59;100.00
44920;BME280;30655;53.094;6.072;2023-02-11T08:31:09;103261.13;;;7.50;100.00
44920;BME280;30655;53.094;6.072;2023-02-11T08:33:37;103286.56;;;7.62;100.00
44920;BME280;30655;53.094;6.072;2023-02-11T08:36:07;103251.59;;;7.32;100.00
44920;BME280;30655;53.094;6.072;2023-02-11T08:38:35;103197.00;;;7.03;100.00
44920;BME280;30655;53.094;6.072;2023-02-11T08:41:03;103217.88;;;7.15;100.00
44920;BME280;30655;53.094;6.072;2023-02-11T08:43:30;103308.97;;;7.69;100.00
44920;BME280;30655;53.094;6.072;2023-02-11T08:45:57;103242.06;;;7.30;100.00
44920;BME280;30655;53.094;6.072;2023-02-11T08:48:28;103317.22;;;7.82;100.00
44920;BME280;30655;53.094;6.072;2023-02-11T08:50:56;103237.13;;;7.33;100.00
44920;BME280;30655;53.094;6.072;2023-02-11T08:53:25;103248.44;;;7.44;100.00
44920;BME280;30655;53.094;6.072;2023-02-11T08:55:56;103296.50;;;7.83;100.00
44920;BME280;30655;53.094;6.072;2023-02-11T08:58:25;103288.97;;;7.93;100.00
44920;BME280;30655;53.094;6.072;2023-02-11T09:00:53;103312.06;;;8.02;100.00
44920;BME280;30655;53.094;6.072;2023-02-11T09:03:20;103299.69;;;8.07;100.00
44920;BME280;30655;53.094;6.072;2023-02-11T09:05:48;103316.00;;;8.20;100.00
44920;BME280;30655;53.094;6.072;2023-02-11T09:08:16;103310.66;;;8.27;100.00
44920;BME280;30655;53.094;6.072;2023-02-11T09:10:43;103255.63;;;7.94;100.00
44920;BME280;30655;53.094;6.072;2023-02-11T09:13:11;103330.31;;;8.42;100.00
44920;BME280;30655;53.094;6.072;2023-02-11T09:15:38;103354.00;;;8.47;100.00
44920;BME280;30655;53.094;6.072;2023-02-11T09:18:05;103336.44;;;8.51;100.00
44920;BME280;30655;53.094;6.072;2023-02-11T09:20:32;103268.72;;;8.18;100.00
44920;BME280;30655;53.094;6.072;2023-02-11T09:23:00;103348.34;;;8.63;100.00
44920;BME280;30655;53.094;6.072;2023-02-11T09:25:27;103278.28;;;8.20;100.00
44920;BME280;30655;53.094;6.072;2023-02-11T09:27:54;103323.72;;;8.45;100.00
44920;BME280;30655;53.094;6.072;2023-02-11T09:30:23;103350.34;;;8.76;100.00
44920;BME280;30655;53.094;6.072;2023-02-11T09:32:49;103177.94;;;7.69;100.00
44920;BME280;30655;53.094;6.072;2023-02-11T09:35:16;103286.75;;;8.39;100.00
44920;BME280;30655;53.094;6.072;2023-02-11T09:37:44;103354.75;;;8.83;100.00
44920;BME280;30655;53.094;6.072;2023-02-11T09:40:11;103272.59;;;8.30;100.00
44920;BME280;30655;53.094;6.072;2023-02-11T09:42:44;103356.03;;;8.87;100.00
44920;BME280;30655;53.094;6.072;2023-02-11T09:45:17;103366.28;;;8.98;100.00
44920;BME280;30655;53.094;6.072;2023-02-11T09:47:51;103364.69;;;9.04;100.00
44920;BME280;30655;53.094;6.072;2023-02-11T09:50:23;103379.88;;;9.12;100.00
44920;BME280;30655;53.094;6.072;2023-02-11T09:52:57;103363.66;;;9.05;100.00
44920;BME280;30655;53.094;6.072;2023-02-11T09:55:28;103384.13;;;9.21;100.00
44920;BME280;30655;53.094;6.072;2023-02-11T09:57:56;103362.88;;;9.11;100.00
44920;BME280;30655;53.094;6.072;2023-02-11T10:00:27;103323.41;;;8.82;100.00
44920;BME280;30655;53.094;6.072;2023-02-11T10:03:20;103371.00;;;9.18;100.00
44920;BME280;30655;53.094;6.072;2023-02-11T10:06:06;103385.03;;;9.34;100.00
44920;BME280;30655;53.094;6.072;2023-02-11T10:08:40;103363.50;;;9.13;100.00
44920;BME280;30655;53.094;6.072;2023-02-11T10:11:16;103369.19;;;9.25;100.00
44920;BME280;30655;53.094;6.072;2023-02-11T10:14:03;103414.19;;;9.52;100.00
44920;BME280;30655;53.094;6.072;2023-02-11T10:16:47;103410.88;;;9.50;100.00
44920;BME280;30655;53.094;6.072;2023-02-11T10:19:37;103411.13;;;9.55;100.00
44920;BME280;30655;53.094;6.072;2023-02-11T10:22:12;103414.44;;;9.57;100.00
44920;BME280;30655;53.094;6.072;2023-02-11T10:24:40;103418.38;;;9.55;100.00
44920;BME280;30655;53.094;6.072;2023-02-11T10:27:15;103430.50;;;9.65;100.00
44920;BME280;30655;53.094;6.072;2023-02-11T10:29:46;103400.72;;;9.52;100.00
44920;BME280;30655;53.094;6.072;2023-02-11T10:32:24;103388.50;;;9.56;100.00
44920;BME280;30655;53.094;6.072;2023-02-11T10:34:55;103294.72;;;9.02;100.00
44920;BME280;30655;53.094;6.072;2023-02-11T10:37:24;103421.50;;;9.92;100.00
44920;BME280;30655;53.094;6.072;2023-02-11T10:39:51;103317.16;;;9.37;100.00
44920;BME280;30655;53.094;6.072;2023-02-11T10:42:19;103341.16;;;9.60;100.00
44920;BME280;30655;53.094;6.072;2023-02-11T10:44:56;103406.78;;;10.02;100.00
44920;BME280;30655;53.094;6.072;2023-02-11T10:47:26;103423.72;;;10.17;100.00
44920;BME280;30655;53.094;6.072;2023-02-11T10:50:20;103410.84;;;10.19;99.16
44920;BME280;30655;53.094;6.072;2023-02-11T10:52:48;103389.75;;;10.08;99.95
44920;BME280;30655;53.094;6.072;2023-02-11T10:55:17;103427.28;;;10.24;99.59
44920;BME280;30655;53.094;6.072;2023-02-11T10:57:51;103303.38;;;9.60;98.78
44920;BME280;30655;53.094;6.072;2023-02-11T11:00:25;103428.75;;;10.33;98.71
44920;BME280;30655;53.094;6.072;2023-02-11T11:02:56;103435.03;;;10.40;98.88
44920;BME280;30655;53.094;6.072;2023-02-11T11:05:29;103423.34;;;10.33;98.07
44920;BME280;30655;53.094;6.072;2023-02-11T11:07:59;103432.56;;;10.45;97.97
44920;BME280;30655;53.094;6.072;2023-02-11T11:10:44;103444.00;;;10.47;95.53
44920;BME280;30655;53.094;6.072;2023-02-11T11:13:36;103269.41;;;9.38;96.15
44920;BME280;30655;53.094;6.072;2023-02-11T11:16:25;103277.34;;;9.52;95.84
44920;BME280;30655;53.094;6.072;2023-02-11T11:19:18;103284.47;;;9.60;95.02
44920;BME280;30655;53.094;6.072;2023-02-11T11:21:59;103294.84;;;9.63;95.63
44920;BME280;30655;53.094;6.072;2023-02-11T11:24:34;103455.09;;;10.65;95.25
44920;BME280;30655;53.094;6.072;2023-02-11T11:27:16;103274.19;;;9.42;95.19
44920;BME280;30655;53.094;6.072;2023-02-11T11:29:49;103313.28;;;9.53;95.09
44920;BME280;30655;53.094;6.072;2023-02-11T11:32:30;103470.84;;;10.49;94.94
44920;BME280;30655;53.094;6.072;2023-02-11T11:35:20;103464.56;;;10.35;94.97
44920;BME280;30655;53.094;6.072;2023-02-11T11:38:02;103304.53;;;9.44;94.03
44920;BME280;30655;53.094;6.072;2023-02-11T11:43:35;103468.94;;;10.43;94.47
44920;BME280;30655;53.094;6.072;2023-02-11T11:46:04;103394.75;;;10.04;94.79
44920;BME280;30655;53.094;6.072;2023-02-11T11:48:47;103274.06;;;9.16;93.70
44920;BME280;30655;53.094;6.072;2023-02-11T11:51:25;103463.09;;;10.39;94.47
44920;BME280;30655;53.094;6.072;2023-02-11T11:54:03;103370.50;;;9.76;94.45
44920;BME280;30655;53.094;6.072;2023-02-11T11:56:38;103384.88;;;9.83;94.10
44920;BME280;30655;53.094;6.072;2023-02-11T11:59:10;103303.22;;;9.34;93.89
44920;BME280;30655;53.094;6.072;2023-02-11T12:01:52;103378.19;;;9.66;93.40
44920;BME280;30655;53.094;6.072;2023-02-11T12:04:55;103293.16;;;9.15;92.89
44920;BME280;30655;53.094;6.072;2023-02-11T12:07:53;103453.44;;;10.17;93.94
44920;BME280;30655;53.094;6.072;2023-02-11T12:10:51;103446.63;;;10.27;93.49
44920;BME280;30655;53.094;6.072;2023-02-11T12:13:57;103297.34;;;9.24;93.54
44920;BME280;30655;53.094;6.072;2023-02-11T12:16:47;103374.25;;;9.75;93.34
44920;BME280;30655;53.094;6.072;2023-02-11T12:19:51;103408.69;;;10.08;93.57
44920;BME280;30655;53.094;6.072;2023-02-11T12:22:52;103464.16;;;10.51;93.71
44920;BME280;30655;53.094;6.072;2023-02-11T12:25:29;103327.66;;;9.67;93.47
44920;BME280;30655;53.094;6.072;2023-02-11T12:28:13;103323.34;;;9.72;93.40
44920;BME280;30655;53.094;6.072;2023-02-11T12:31:05;103317.94;;;9.72;92.81
44920;BME280;30655;53.094;6.072;2023-02-11T12:40:00;103454.84;;;10.67;93.16
44920;BME280;30655;53.094;6.072;2023-02-11T12:42:43;103391.53;;;10.28;92.83
44920;BME280;30655;53.094;6.072;2023-02-11T12:45:36;103468.81;;;10.70;92.44
44920;BME280;30655;53.094;6.072;2023-02-11T12:55:08;103302.84;;;9.91;92.00
44920;BME280;30655;53.094;6.072;2023-02-11T12:58:33;103362.22;;;10.32;92.02
44920;BME280;30655;53.094;6.072;2023-02-11T13:01:38;103345.59;;;10.28;91.98
44920;BME280;30655;53.094;6.072;2023-02-11T13:07:52;103264.19;;;9.90;91.54
44920;BME280;30655;53.094;6.072;2023-02-11T13:10:47;103257.34;;;9.94;91.91
44920;BME280;30655;53.094;6.072;2023-02-11T13:13:30;103447.84;;;11.05;90.40
44920;BME280;30655;53.094;6.072;2023-02-11T13:16:14;103453.88;;;11.14;91.53
44920;BME280;30655;53.094;6.072;2023-02-11T13:19:12;103431.59;;;11.12;91.27
44920;BME280;30655;53.094;6.072;2023-02-11T13:22:09;103441.38;;;11.33;90.79
44920;BME280;30655;53.094;6.072;2023-02-11T13:24:43;103377.25;;;11.07;91.17
44920;BME280;30655;53.094;6.072;2023-02-11T13:27:23;103405.78;;;11.29;90.11
44920;BME280;30655;53.094;6.072;2023-02-11T13:30:17;103429.47;;;11.53;88.91
44920;BME280;30655;53.094;6.072;2023-02-11T13:33:16;103366.63;;;11.12;88.69
44920;BME280;30655;53.094;6.072;2023-02-11T13:35:49;103402.66;;;11.26;89.13
44920;BME280;30655;53.094;6.072;2023-02-11T13:38:37;103453.03;;;11.59;89.02
44920;BME280;30655;53.094;6.072;2023-02-11T13:41:10;103455.94;;;11.51;88.50
44920;BME280;30655;53.094;6.072;2023-02-11T13:43:55;103434.50;;;11.17;88.92
44920;BME280;30655;53.094;6.072;2023-02-11T13:49:21;103399.72;;;10.61;88.42
44920;BME280;30655;53.094;6.072;2023-02-11T13:51:53;103437.81;;;10.73;88.65